createdAt,value
2018-04-02T00:00:15.277Z,0.00
2018-04-02T00:02:10.575Z,0.00
2018-04-02T00:03:10.461Z,0.00
2018-04-02T00:05:05.731Z,0.00
2018-04-02T00:06:05.657Z,0.00
2018-04-02T00:08:00.933Z,0.00
2018-04-02T00:09:00.813Z,0.00
2018-04-02T00:10:56.088Z,0.00
2018-04-02T00:11:55.994Z,0.00
2018-04-02T00:13:51.283Z,0.00
2018-04-02T00:14:51.185Z,0.00
2018-04-02T00:16:46.484Z,0.00
2018-04-02T00:17:46.343Z,0.00
2018-04-02T00:19:41.622Z,0.00
2018-04-02T00:20:41.504Z,0.00
2018-04-02T00:22:36.930Z,0.00
2018-04-02T00:23:36.688Z,0.00
2018-04-02T00:25:32.001Z,0.00
2018-04-02T00:26:31.885Z,0.00
2018-04-02T00:28:27.163Z,0.00
2018-04-02T00:29:27.064Z,0.00
2018-04-02T00:31:22.357Z,0.00
2018-04-02T00:32:22.237Z,0.00
2018-04-02T00:34:17.541Z,0.00
2018-04-02T00:35:17.412Z,0.00
2018-04-02T00:37:12.730Z,0.00
2018-04-02T00:38:12.594Z,0.00
2018-04-02T00:40:08.747Z,0.00
2018-04-02T00:41:08.656Z,0.00
2018-04-02T00:43:03.937Z,0.00
2018-04-02T00:44:03.829Z,0.00
2018-04-02T00:45:59.083Z,0.00
2018-04-02T00:46:58.984Z,0.00
2018-04-02T00:48:54.316Z,0.00
2018-04-02T00:49:54.153Z,0.00
2018-04-02T00:51:49.431Z,0.00
2018-04-02T00:52:49.347Z,0.00
2018-04-02T00:54:44.643Z,0.00
2018-04-02T00:55:44.540Z,0.00
2018-04-02T00:57:39.831Z,0.00
2018-04-02T00:58:39.705Z,0.00
2018-04-02T01:00:34.969Z,0.00
2018-04-02T01:01:34.865Z,0.00
2018-04-02T01:03:31.987Z,0.00
2018-04-02T01:04:30.048Z,0.00
2018-04-02T01:06:25.342Z,0.00
2018-04-02T01:07:25.236Z,0.00
2018-04-02T01:09:21.359Z,0.00
2018-04-02T01:10:21.253Z,0.00
2018-04-02T01:12:16.527Z,0.00
2018-04-02T01:13:16.420Z,0.00
2018-04-02T01:15:11.685Z,0.00
2018-04-02T01:16:11.614Z,0.00
2018-04-02T01:18:06.917Z,0.00
2018-04-02T01:19:06.795Z,0.00
2018-04-02T01:21:02.121Z,0.00
2018-04-02T01:22:01.982Z,0.00
2018-04-02T01:23:57.261Z,0.00
2018-04-02T01:24:57.151Z,0.00
2018-04-02T01:26:52.474Z,0.00
2018-04-02T01:27:52.325Z,0.00
2018-04-02T01:29:47.643Z,0.00
2018-04-02T01:30:47.498Z,0.00
2018-04-02T01:32:43.617Z,0.00
2018-04-02T01:33:43.577Z,0.00
2018-04-02T01:35:39.652Z,0.00
2018-04-02T01:36:39.533Z,0.00
2018-04-02T01:38:34.859Z,0.00
2018-04-02T01:39:34.742Z,0.00
2018-04-02T01:41:29.971Z,0.00
2018-04-02T01:42:29.905Z,0.00
2018-04-02T01:44:25.179Z,0.00
2018-04-02T01:45:25.060Z,0.00
2018-04-02T01:47:20.352Z,0.00
2018-04-02T01:48:20.227Z,0.00
2018-04-02T01:50:15.534Z,0.00
2018-04-02T01:51:15.420Z,0.00
2018-04-02T01:53:10.720Z,0.00
2018-04-02T01:54:10.595Z,0.00
2018-04-02T01:56:05.885Z,0.00
2018-04-02T01:57:05.777Z,0.00
2018-04-02T01:59:01.049Z,0.00
2018-04-02T02:00:00.945Z,0.00
2018-04-02T02:01:56.190Z,0.00
2018-04-02T02:02:56.123Z,0.00
2018-04-02T02:04:51.405Z,0.00
2018-04-02T02:05:51.286Z,0.00
2018-04-02T02:07:46.563Z,0.00
2018-04-02T02:08:46.449Z,0.00
2018-04-02T02:10:41.713Z,0.00
2018-04-02T02:11:41.613Z,0.00
2018-04-02T02:13:36.914Z,0.00
2018-04-02T02:14:36.801Z,0.00
2018-04-02T02:16:32.101Z,0.00
2018-04-02T02:17:31.978Z,0.00
2018-04-02T02:19:27.366Z,0.00
2018-04-02T02:20:27.245Z,0.00
2018-04-02T02:22:22.461Z,0.00
2018-04-02T02:23:22.358Z,0.00
2018-04-02T02:25:17.623Z,0.00
2018-04-02T02:26:17.531Z,0.00
2018-04-02T02:28:12.788Z,0.00
2018-04-02T02:29:12.688Z,0.00
2018-04-02T02:31:07.961Z,0.00
2018-04-02T02:32:07.855Z,0.00
2018-04-02T02:34:03.135Z,0.00
2018-04-02T02:35:03.052Z,0.00
2018-04-02T02:36:58.336Z,0.00
2018-04-02T02:37:58.216Z,0.00
2018-04-02T02:39:53.450Z,0.00
2018-04-02T02:40:53.379Z,0.00
2018-04-02T02:42:48.653Z,0.00
2018-04-02T02:43:48.548Z,0.00
2018-04-02T02:45:44.908Z,0.00
2018-04-02T02:46:44.535Z,0.00
2018-04-02T02:48:39.831Z,0.00
2018-04-02T02:49:39.713Z,0.00
2018-04-02T02:51:34.988Z,0.00
2018-04-02T02:52:34.859Z,0.00
2018-04-02T02:54:30.171Z,0.00
2018-04-02T02:55:30.052Z,0.00
2018-04-02T02:57:25.311Z,0.00
2018-04-02T02:58:25.215Z,0.00
2018-04-02T03:00:20.638Z,0.00
2018-04-02T03:01:20.413Z,0.00
2018-04-02T03:03:15.690Z,0.00
2018-04-02T03:04:15.556Z,0.00
2018-04-02T03:06:10.844Z,0.00
2018-04-02T03:07:10.754Z,0.00
2018-04-02T03:09:06.036Z,0.00
2018-04-02T03:10:05.911Z,0.00
2018-04-02T03:12:01.196Z,0.00
2018-04-02T03:13:01.101Z,0.00
2018-04-02T03:14:56.374Z,0.00
2018-04-02T03:15:56.258Z,0.00
2018-04-02T03:17:51.559Z,0.00
2018-04-02T03:18:51.464Z,0.00
2018-04-02T03:20:46.715Z,0.00
2018-04-02T03:21:46.610Z,0.00
2018-04-02T03:23:41.878Z,0.00
2018-04-02T03:24:41.781Z,0.00
2018-04-02T03:26:37.035Z,0.00
2018-04-02T03:27:36.957Z,0.00
2018-04-02T03:29:32.287Z,0.00
2018-04-02T03:30:32.176Z,0.00
2018-04-02T03:32:27.420Z,0.00
2018-04-02T03:33:27.314Z,0.00
2018-04-02T03:35:22.608Z,0.00
2018-04-02T03:36:22.480Z,0.00
2018-04-02T03:38:17.883Z,0.00
2018-04-02T03:39:17.711Z,0.00
2018-04-02T03:41:13.010Z,0.00
2018-04-02T03:42:12.897Z,0.00
2018-04-02T03:44:08.173Z,0.00
2018-04-02T03:45:08.090Z,0.00
2018-04-02T03:47:03.386Z,0.00
2018-04-02T03:48:03.272Z,0.00
2018-04-02T03:49:58.492Z,0.00
2018-04-02T03:50:58.401Z,0.00
2018-04-02T03:52:53.696Z,0.00
2018-04-02T03:53:53.584Z,0.00
2018-04-02T03:55:48.900Z,0.00
2018-04-02T03:56:48.778Z,0.00
2018-04-02T03:58:44.019Z,0.00
2018-04-02T03:59:43.954Z,0.00
2018-04-02T04:01:39.225Z,0.00
2018-04-02T04:02:39.111Z,0.00
2018-04-02T04:04:34.387Z,0.00
2018-04-02T04:05:34.267Z,0.00
2018-04-02T04:07:29.542Z,0.00
2018-04-02T04:08:29.446Z,0.00
2018-04-02T04:10:24.718Z,0.00
2018-04-02T04:11:24.597Z,0.00
2018-04-02T04:13:20.794Z,0.00
2018-04-02T04:14:20.650Z,0.00
2018-04-02T04:16:15.928Z,0.00
2018-04-02T04:17:15.830Z,0.00
2018-04-02T04:19:11.085Z,0.00
2018-04-02T04:20:10.989Z,0.00
2018-04-02T04:22:07.140Z,0.00
2018-04-02T04:23:07.018Z,0.00
2018-04-02T04:25:02.318Z,0.00
2018-04-02T04:26:02.233Z,0.00
2018-04-02T04:27:57.495Z,0.00
2018-04-02T04:28:57.390Z,0.00
2018-04-02T04:30:52.660Z,0.00
2018-04-02T04:31:52.559Z,0.00
2018-04-02T04:33:47.961Z,0.00
2018-04-02T04:34:47.731Z,0.00
2018-04-02T04:36:43.040Z,0.00
2018-04-02T04:37:42.911Z,0.00
2018-04-02T04:39:38.192Z,0.00
2018-04-02T04:40:38.094Z,0.00
2018-04-02T04:42:33.366Z,0.00
2018-04-02T04:43:33.246Z,0.00
2018-04-02T04:45:28.522Z,0.00
2018-04-02T04:46:28.417Z,0.00
2018-04-02T04:48:23.701Z,0.00
2018-04-02T04:49:23.578Z,0.00
2018-04-02T04:51:18.890Z,0.00
2018-04-02T04:52:18.791Z,0.00
2018-04-02T04:54:14.072Z,0.00
2018-04-02T04:55:13.954Z,0.00
2018-04-02T04:56:13.885Z,0.00
2018-04-02T04:57:13.816Z,0.00
2018-04-02T04:58:13.730Z,0.00
2018-04-02T04:59:13.650Z,0.00
2018-04-02T05:00:13.604Z,0.00
2018-04-02T05:01:13.539Z,0.00
2018-04-02T05:02:13.493Z,0.00
2018-04-02T05:03:13.389Z,0.00
2018-04-02T05:04:13.313Z,0.00
2018-04-02T05:05:13.240Z,0.00
2018-04-02T05:06:13.155Z,0.00
2018-04-02T05:07:13.105Z,0.00
2018-04-02T05:08:13.038Z,0.00
2018-04-02T05:09:12.957Z,0.00
2018-04-02T05:10:12.869Z,0.00
2018-04-02T05:11:12.790Z,0.00
2018-04-02T05:12:12.746Z,0.00
2018-04-02T05:13:12.667Z,0.00
2018-04-02T05:14:12.599Z,0.00
2018-04-02T05:15:12.527Z,0.00
2018-04-02T05:16:12.453Z,0.00
2018-04-02T05:17:12.385Z,0.00
2018-04-02T05:18:12.290Z,0.00
2018-04-02T05:19:12.242Z,0.00
2018-04-02T05:20:12.172Z,0.00
2018-04-02T05:21:12.079Z,0.00
2018-04-02T05:22:12.045Z,0.00
2018-04-02T05:23:11.953Z,0.00
2018-04-02T05:24:11.878Z,0.00
2018-04-02T05:25:11.789Z,0.00
2018-04-02T05:26:11.724Z,0.00
2018-04-02T05:27:11.657Z,0.00
2018-04-02T05:28:11.597Z,4.00
2018-04-02T05:29:11.520Z,0.00
2018-04-02T05:30:11.430Z,4.00
2018-04-02T05:31:11.382Z,4.00
2018-04-02T05:32:11.321Z,4.00
2018-04-02T05:33:11.218Z,4.00
2018-04-02T05:34:11.167Z,4.00
2018-04-02T05:35:11.084Z,8.00
2018-04-02T05:36:11.017Z,8.00
2018-04-02T05:37:10.948Z,8.00
2018-04-02T05:38:10.874Z,8.00
2018-04-02T05:39:10.807Z,12.00
2018-04-02T05:40:10.719Z,12.00
2018-04-02T05:41:10.648Z,12.00
2018-04-02T05:42:10.586Z,20.00
2018-04-02T05:43:10.522Z,20.00
2018-04-02T05:44:10.464Z,24.00
2018-04-02T05:45:10.373Z,28.00
2018-04-02T05:46:10.283Z,28.00
2018-04-02T05:47:10.228Z,28.00
2018-04-02T05:48:10.145Z,32.00
2018-04-02T05:49:10.093Z,40.00
2018-04-02T05:50:10.002Z,44.00
2018-04-02T05:51:09.924Z,44.00
2018-04-02T05:52:09.868Z,52.00
2018-04-02T05:53:09.804Z,56.00
2018-04-02T05:54:09.733Z,60.00
2018-04-02T05:55:09.641Z,68.00
2018-04-02T05:56:09.588Z,76.00
2018-04-02T05:57:09.516Z,84.00
2018-04-02T05:58:09.425Z,92.00
2018-04-02T05:59:09.350Z,104.00
2018-04-02T06:00:09.278Z,112.00
2018-04-02T06:01:09.213Z,124.00
2018-04-02T06:02:09.139Z,136.00
2018-04-02T06:03:09.067Z,148.00
2018-04-02T06:04:08.996Z,164.00
2018-04-02T06:05:08.989Z,176.00
2018-04-02T06:06:08.848Z,184.00
2018-04-02T06:07:08.805Z,200.00
2018-04-02T06:08:08.768Z,208.00
2018-04-02T06:09:08.651Z,224.00
2018-04-02T06:10:08.562Z,232.00
2018-04-02T06:11:08.491Z,240.00
2018-04-02T06:12:08.415Z,252.00
2018-04-02T06:13:08.376Z,268.00
2018-04-02T06:14:08.314Z,284.00
2018-04-02T06:15:08.221Z,296.00
2018-04-02T06:16:08.157Z,308.00
2018-04-02T06:17:08.063Z,316.00
2018-04-02T06:18:08.004Z,324.00
2018-04-02T06:19:07.932Z,328.00
2018-04-02T06:20:07.877Z,332.00
2018-04-02T06:21:07.782Z,340.00
2018-04-02T06:22:07.721Z,356.00
2018-04-02T06:23:07.660Z,376.00
2018-04-02T06:24:07.580Z,388.00
2018-04-02T06:25:07.499Z,404.00
2018-04-02T06:26:07.437Z,416.00
2018-04-02T06:27:07.366Z,432.00
2018-04-02T06:28:07.296Z,448.00
2018-04-02T06:29:07.227Z,472.00
2018-04-02T06:30:07.159Z,496.00
2018-04-02T06:31:07.074Z,524.00
2018-04-02T06:32:06.990Z,548.00
2018-04-02T06:33:06.925Z,564.00
2018-04-02T06:34:06.852Z,580.00
2018-04-02T06:35:06.794Z,608.00
2018-04-02T06:36:06.717Z,628.00
2018-04-02T06:37:06.700Z,660.00
2018-04-02T06:38:06.562Z,680.00
2018-04-02T06:39:06.490Z,700.00
2018-04-02T06:40:06.424Z,720.00
2018-04-02T06:41:06.377Z,744.00
2018-04-02T06:42:06.293Z,764.00
2018-04-02T06:43:06.209Z,792.00
2018-04-02T06:44:06.164Z,812.00
2018-04-02T06:45:06.115Z,840.00
2018-04-02T06:46:06.008Z,864.00
2018-04-02T06:47:05.932Z,884.00
2018-04-02T06:48:05.862Z,896.00
2018-04-02T06:49:05.779Z,904.00
2018-04-02T06:50:05.718Z,908.00
2018-04-02T06:51:05.646Z,920.00
2018-04-02T06:52:05.565Z,932.00
2018-04-02T06:53:05.532Z,944.00
2018-04-02T06:54:05.433Z,960.00
2018-04-02T06:55:05.359Z,968.00
2018-04-02T06:56:05.272Z,976.00
2018-04-02T06:57:05.192Z,996.00
2018-04-02T06:58:05.170Z,1020.00
2018-04-02T06:59:05.052Z,1052.00
2018-04-02T07:00:05.017Z,1092.00
2018-04-02T07:01:04.909Z,1140.00
2018-04-02T07:02:04.843Z,1184.00
2018-04-02T07:03:04.778Z,1224.00
2018-04-02T07:04:04.709Z,1264.00
2018-04-02T07:05:04.624Z,1300.00
2018-04-02T07:06:04.566Z,1324.00
2018-04-02T07:07:04.477Z,1344.00
2018-04-02T07:08:04.405Z,1348.00
2018-04-02T07:09:04.331Z,1344.00
2018-04-02T07:10:04.289Z,1344.00
2018-04-02T07:11:04.196Z,1356.00
2018-04-02T07:12:04.120Z,1380.00
2018-04-02T07:13:04.051Z,1412.00
2018-04-02T07:14:03.976Z,1444.00
2018-04-02T07:15:03.934Z,1476.00
2018-04-02T07:16:03.850Z,1508.00
2018-04-02T07:17:03.760Z,1536.00
2018-04-02T07:18:03.687Z,1552.00
2018-04-02T07:19:03.613Z,1564.00
2018-04-02T07:20:03.573Z,1584.00
2018-04-02T07:21:03.470Z,1600.00
2018-04-02T07:22:03.404Z,1624.00
2018-04-02T07:23:03.397Z,1644.00
2018-04-02T07:24:03.259Z,1668.00
2018-04-02T07:25:03.192Z,1692.00
2018-04-02T07:26:03.118Z,1716.00
2018-04-02T07:27:03.045Z,1748.00
2018-04-02T07:28:02.975Z,1784.00
2018-04-02T07:29:02.952Z,1820.00
2018-04-02T07:30:02.846Z,1852.00
2018-04-02T07:31:02.786Z,1872.00
2018-04-02T07:32:02.722Z,1888.00
2018-04-02T07:33:02.638Z,1912.00
2018-04-02T07:34:02.584Z,1940.00
2018-04-02T07:35:02.493Z,1968.00
2018-04-02T07:36:02.424Z,2004.00
2018-04-02T07:37:02.358Z,2040.00
2018-04-02T07:38:02.261Z,2076.00
2018-04-02T07:39:02.256Z,2108.00
2018-04-02T07:40:02.151Z,2144.00
2018-04-02T07:41:02.064Z,2180.00
2018-04-02T07:42:01.985Z,2216.00
2018-04-02T07:43:01.912Z,2252.00
2018-04-02T07:44:01.845Z,2280.00
2018-04-02T07:45:01.772Z,2300.00
2018-04-02T07:46:01.701Z,2312.00
2018-04-02T07:47:01.642Z,2312.00
2018-04-02T07:48:01.562Z,2312.00
2018-04-02T07:49:01.489Z,2320.00
2018-04-02T07:50:01.441Z,2332.00
2018-04-02T07:51:01.378Z,2348.00
2018-04-02T07:52:01.287Z,2364.00
2018-04-02T07:53:01.223Z,2376.00
2018-04-02T07:54:01.126Z,2388.00
2018-04-02T07:55:01.080Z,2396.00
2018-04-02T07:56:01.016Z,2416.00
2018-04-02T07:57:00.943Z,2460.00
2018-04-02T07:58:00.864Z,2508.00
2018-04-02T07:59:00.780Z,2560.00
2018-04-02T08:00:00.707Z,2616.00
2018-04-02T08:01:00.652Z,2664.00
2018-04-02T08:02:00.580Z,2716.00
2018-04-02T08:03:00.551Z,2776.00
2018-04-02T08:04:00.506Z,2848.00
2018-04-02T08:05:00.367Z,2912.00
2018-04-02T08:06:00.279Z,2980.00
2018-04-02T08:07:00.203Z,3036.00
2018-04-02T08:08:00.155Z,3088.00
2018-04-02T08:09:00.092Z,3140.00
2018-04-02T08:10:00.015Z,3184.00
2018-04-02T08:10:59.940Z,3220.00
2018-04-02T08:11:59.876Z,3272.00
2018-04-02T08:12:59.800Z,3312.00
2018-04-02T08:13:59.718Z,3352.00
2018-04-02T08:14:59.641Z,3388.00
2018-04-02T08:15:59.585Z,3432.00
2018-04-02T08:16:59.536Z,3444.00
2018-04-02T08:17:59.481Z,3464.00
2018-04-02T08:18:59.391Z,3468.00
2018-04-02T08:19:59.323Z,3444.00
2018-04-02T08:20:59.218Z,3428.00
2018-04-02T08:21:59.164Z,3404.00
2018-04-02T08:22:59.218Z,3380.00
2018-04-02T08:23:59.027Z,3380.00
2018-04-02T08:24:58.954Z,3404.00
2018-04-02T08:25:58.883Z,3456.00
2018-04-02T08:26:58.810Z,3512.00
2018-04-02T08:27:58.744Z,3552.00
2018-04-02T08:28:58.677Z,3584.00
2018-04-02T08:29:58.603Z,3612.00
2018-04-02T08:30:58.512Z,3668.00
2018-04-02T08:31:58.442Z,3672.00
2018-04-02T08:32:58.373Z,3608.00
2018-04-02T08:33:58.327Z,3580.00
2018-04-02T08:34:58.271Z,3580.00
2018-04-02T08:35:58.180Z,3544.00
2018-04-02T08:36:58.090Z,3504.00
2018-04-02T08:37:58.042Z,3556.00
2018-04-02T08:38:58.017Z,3648.00
2018-04-02T08:39:57.889Z,3728.00
2018-04-02T08:40:57.830Z,3708.00
2018-04-02T08:41:57.739Z,3536.00
2018-04-02T08:42:57.681Z,3508.00
2018-04-02T08:43:57.598Z,3456.00
2018-04-02T08:44:57.527Z,3436.00
2018-04-02T08:45:57.461Z,3472.00
2018-04-02T08:46:57.404Z,3528.00
2018-04-02T08:47:57.334Z,3528.00
2018-04-02T08:48:57.262Z,3540.00
2018-04-02T08:49:57.194Z,3520.00
2018-04-02T08:50:57.107Z,3516.00
2018-04-02T08:51:57.043Z,3556.00
2018-04-02T08:52:57.023Z,3624.00
2018-04-02T08:53:56.895Z,3648.00
2018-04-02T08:54:56.855Z,3640.00
2018-04-02T08:55:56.780Z,3660.00
2018-04-02T08:56:56.692Z,3640.00
2018-04-02T08:57:56.636Z,3660.00
2018-04-02T08:58:56.538Z,3744.00
2018-04-02T08:59:56.465Z,3836.00
2018-04-02T09:00:56.396Z,3968.00
2018-04-02T09:01:56.334Z,4040.00
2018-04-02T09:02:56.268Z,4108.00
2018-04-02T09:03:56.190Z,4244.00
2018-04-02T09:04:56.132Z,4304.00
2018-04-02T09:05:56.047Z,4444.00
2018-04-02T09:06:56.034Z,4448.00
2018-04-02T09:07:55.922Z,4384.00
2018-04-02T09:08:55.835Z,4356.00
2018-04-02T09:09:55.774Z,4396.00
2018-04-02T09:10:55.691Z,4264.00
2018-04-02T09:11:55.649Z,4236.00
2018-04-02T09:12:55.549Z,4256.00
2018-04-02T09:13:55.494Z,4340.00
2018-04-02T09:14:55.413Z,4380.00
2018-04-02T09:15:55.354Z,4368.00
2018-04-02T09:16:55.284Z,4592.00
2018-04-02T09:17:55.196Z,4716.00
2018-04-02T09:18:55.126Z,4592.00
2018-04-02T09:19:55.085Z,4632.00
2018-04-02T09:20:54.997Z,4604.00
2018-04-02T09:21:54.948Z,4544.00
2018-04-02T09:22:54.838Z,4424.00
2018-04-02T09:23:54.773Z,4380.00
2018-04-02T09:24:54.703Z,4388.00
2018-04-02T09:25:54.655Z,4512.00
2018-04-02T09:26:54.577Z,4536.00
2018-04-02T09:27:54.506Z,4472.00
2018-04-02T09:28:54.426Z,4408.00
2018-04-02T09:29:54.350Z,4396.00
2018-04-02T09:30:54.289Z,4440.00
2018-04-02T09:31:54.223Z,4540.00
2018-04-02T09:32:54.159Z,4628.00
2018-04-02T09:33:54.071Z,4720.00
2018-04-02T09:34:54.012Z,4872.00
2018-04-02T09:35:53.927Z,4856.00
2018-04-02T09:36:53.876Z,4692.00
2018-04-02T09:37:53.789Z,4624.00
2018-04-02T09:38:53.740Z,4384.00
2018-04-02T09:39:53.652Z,4248.00
2018-04-02T09:40:53.577Z,4084.00
2018-04-02T09:41:53.516Z,4192.00
2018-04-02T09:42:53.426Z,4220.00
2018-04-02T09:43:53.361Z,4164.00
2018-04-02T09:44:53.309Z,4116.00
2018-04-02T09:45:53.236Z,4080.00
2018-04-02T09:46:53.166Z,4016.00
2018-04-02T09:47:53.100Z,4156.00
2018-04-02T09:48:53.011Z,4252.00
2018-04-02T09:49:52.939Z,4392.00
2018-04-02T09:50:52.891Z,4976.00
2018-04-02T09:51:52.805Z,4860.00
2018-04-02T09:52:52.733Z,4276.00
2018-04-02T09:53:52.695Z,4432.00
2018-04-02T09:54:52.586Z,4288.00
2018-04-02T09:55:52.523Z,4252.00
2018-04-02T09:56:52.450Z,4132.00
2018-04-02T09:57:52.383Z,3960.00
2018-04-02T09:58:52.313Z,4008.00
2018-04-02T09:59:52.256Z,4196.00
2018-04-02T10:00:52.190Z,4316.00
2018-04-02T10:01:52.120Z,4508.00
2018-04-02T10:02:52.042Z,4488.00
2018-04-02T10:03:51.964Z,4652.00
2018-04-02T10:04:52.004Z,4828.00
2018-04-02T10:05:51.834Z,5112.00
2018-04-02T10:06:51.755Z,5472.00
2018-04-02T10:07:51.679Z,5716.00
2018-04-02T10:08:51.624Z,5680.00
2018-04-02T10:09:51.600Z,6068.00
2018-04-02T10:10:51.487Z,6008.00
2018-04-02T10:11:51.434Z,5584.00
2018-04-02T10:12:51.336Z,5232.00
2018-04-02T10:13:51.280Z,5332.00
2018-04-02T10:14:51.210Z,5284.00
2018-04-02T10:15:51.128Z,5356.00
2018-04-02T10:16:51.072Z,5708.00
2018-04-02T10:17:50.986Z,5512.00
2018-04-02T10:18:50.934Z,5496.00
2018-04-02T10:19:50.860Z,5448.00
2018-04-02T10:20:50.807Z,5692.00
2018-04-02T10:21:50.713Z,5872.00
2018-04-02T10:22:50.662Z,5780.00
2018-04-02T10:23:50.630Z,5680.00
2018-04-02T10:24:50.518Z,5528.00
2018-04-02T10:25:50.453Z,5544.00
2018-04-02T10:26:50.382Z,5584.00
2018-04-02T10:27:50.314Z,5804.00
2018-04-02T10:28:50.241Z,6012.00
2018-04-02T10:29:50.160Z,5840.00
2018-04-02T10:30:50.124Z,5924.00
2018-04-02T10:31:50.023Z,6136.00
2018-04-02T10:32:49.966Z,6180.00
2018-04-02T10:33:49.921Z,5948.00
2018-04-02T10:34:49.833Z,5764.00
2018-04-02T10:35:49.766Z,5756.00
2018-04-02T10:36:49.682Z,5744.00
2018-04-02T10:37:49.606Z,5832.00
2018-04-02T10:38:49.542Z,5748.00
2018-04-02T10:39:49.480Z,5580.00
2018-04-02T10:40:49.429Z,5512.00
2018-04-02T10:41:49.328Z,5352.00
2018-04-02T10:42:49.294Z,5260.00
2018-04-02T10:43:49.191Z,5172.00
2018-04-02T10:44:49.125Z,5064.00
2018-04-02T10:45:49.075Z,4920.00
2018-04-02T10:46:49.008Z,4792.00
2018-04-02T10:47:48.938Z,4724.00
2018-04-02T10:48:48.868Z,4692.00
2018-04-02T10:49:48.793Z,4652.00
2018-04-02T10:50:48.736Z,4616.00
2018-04-02T10:51:48.673Z,4584.00
2018-04-02T10:52:48.576Z,4580.00
2018-04-02T10:53:48.568Z,4604.00
2018-04-02T10:54:48.436Z,4624.00
2018-04-02T10:55:48.367Z,4620.00
2018-04-02T10:56:48.310Z,4644.00
2018-04-02T10:57:48.240Z,4668.00
2018-04-02T10:58:48.161Z,4708.00
2018-04-02T10:59:48.152Z,4736.00
2018-04-02T11:00:48.034Z,4752.00
2018-04-02T11:01:47.981Z,4736.00
2018-04-02T11:02:47.894Z,4692.00
2018-04-02T11:03:47.812Z,4640.00
2018-04-02T11:04:47.771Z,4604.00
2018-04-02T11:05:47.715Z,4556.00
2018-04-02T11:06:47.634Z,4492.00
2018-04-02T11:07:47.561Z,4428.00
2018-04-02T11:08:47.469Z,4408.00
2018-04-02T11:09:47.460Z,4424.00
2018-04-02T11:10:47.348Z,4460.00
2018-04-02T11:11:47.279Z,4476.00
2018-04-02T11:12:47.209Z,4500.00
2018-04-02T11:13:47.129Z,4524.00
2018-04-02T11:14:47.071Z,4548.00
2018-04-02T11:15:47.004Z,4568.00
2018-04-02T11:16:46.922Z,4580.00
2018-04-02T11:17:46.846Z,4564.00
2018-04-02T11:18:46.782Z,4548.00
2018-04-02T11:19:46.717Z,4584.00
2018-04-02T11:20:46.676Z,4648.00
2018-04-02T11:21:46.576Z,4736.00
2018-04-02T11:22:46.527Z,4764.00
2018-04-02T11:23:46.485Z,4708.00
2018-04-02T11:24:46.380Z,4644.00
2018-04-02T11:25:46.335Z,4612.00
2018-04-02T11:26:46.246Z,4604.00
2018-04-02T11:27:46.183Z,4612.00
2018-04-02T11:28:46.138Z,4596.00
2018-04-02T11:29:46.028Z,4596.00
2018-04-02T11:30:45.955Z,4608.00
2018-04-02T11:31:45.915Z,4688.00
2018-04-02T11:32:45.823Z,4824.00
2018-04-02T11:33:45.755Z,4940.00
2018-04-02T11:34:45.704Z,5124.00
2018-04-02T11:35:45.645Z,5256.00
2018-04-02T11:36:45.560Z,5396.00
2018-04-02T11:37:45.491Z,5600.00
2018-04-02T11:38:45.411Z,5692.00
2018-04-02T11:39:45.368Z,5812.00
2018-04-02T11:40:45.280Z,5808.00
2018-04-02T11:41:45.213Z,5784.00
2018-04-02T11:42:45.142Z,5732.00
2018-04-02T11:43:45.089Z,5624.00
2018-04-02T11:44:45.009Z,5476.00
2018-04-02T11:45:44.955Z,5408.00
2018-04-02T11:46:44.883Z,5344.00
2018-04-02T11:47:44.822Z,5304.00
2018-04-02T11:48:44.748Z,5260.00
2018-04-02T11:49:44.693Z,5268.00
2018-04-02T11:50:44.609Z,5364.00
2018-04-02T11:51:44.528Z,5504.00
2018-04-02T11:52:44.462Z,5424.00
2018-04-02T11:53:44.411Z,5456.00
2018-04-02T11:54:44.343Z,5348.00
2018-04-02T11:55:44.276Z,5324.00
2018-04-02T11:56:44.200Z,5312.00
2018-04-02T11:57:44.152Z,5272.00
2018-04-02T11:58:44.058Z,5260.00
2018-04-02T11:59:43.999Z,5224.00
2018-04-02T12:00:43.932Z,5348.00
2018-04-02T12:01:43.852Z,5476.00
2018-04-02T12:02:43.808Z,5388.00
2018-04-02T12:03:43.726Z,5348.00
2018-04-02T12:04:43.673Z,5220.00
2018-04-02T12:05:43.596Z,5208.00
2018-04-02T12:06:43.520Z,5120.00
2018-04-02T12:07:43.452Z,5108.00
2018-04-02T12:08:43.385Z,5288.00
2018-04-02T12:09:43.344Z,5116.00
2018-04-02T12:10:43.249Z,5212.00
2018-04-02T12:11:43.186Z,5288.00
2018-04-02T12:12:43.119Z,5360.00
2018-04-02T12:13:43.070Z,5448.00
2018-04-02T12:14:43.012Z,5504.00
2018-04-02T12:15:42.920Z,5644.00
2018-04-02T12:16:42.870Z,5788.00
2018-04-02T12:17:42.772Z,5864.00
2018-04-02T12:18:42.709Z,5736.00
2018-04-02T12:19:42.662Z,5788.00
2018-04-02T12:20:42.582Z,5732.00
2018-04-02T12:21:42.532Z,5592.00
2018-04-02T12:22:42.454Z,5376.00
2018-04-02T12:23:42.387Z,5340.00
2018-04-02T12:24:42.320Z,5352.00
2018-04-02T12:25:42.254Z,5296.00
2018-04-02T12:26:42.173Z,5124.00
2018-04-02T12:27:42.136Z,4844.00
2018-04-02T12:28:42.050Z,4968.00
2018-04-02T12:29:41.975Z,5112.00
2018-04-02T12:30:41.921Z,5092.00
2018-04-02T12:31:41.851Z,5128.00
2018-04-02T12:32:41.812Z,5212.00
2018-04-02T12:33:41.705Z,5268.00
2018-04-02T12:34:41.637Z,5372.00
2018-04-02T12:35:41.582Z,5380.00
2018-04-02T12:36:41.506Z,5288.00
2018-04-02T12:37:41.438Z,5108.00
2018-04-02T12:38:41.381Z,4952.00
2018-04-02T12:39:41.295Z,4784.00
2018-04-02T12:40:41.223Z,4524.00
2018-04-02T12:41:41.157Z,4312.00
2018-04-02T12:42:41.095Z,4164.00
2018-04-02T12:43:41.019Z,4084.00
2018-04-02T12:44:40.977Z,4072.00
2018-04-02T12:45:40.893Z,4104.00
2018-04-02T12:46:40.834Z,4172.00
2018-04-02T12:47:40.754Z,4224.00
2018-04-02T12:48:40.702Z,4260.00
2018-04-02T12:49:40.621Z,4388.00
2018-04-02T12:50:40.553Z,4524.00
2018-04-02T12:51:40.496Z,4640.00
2018-04-02T12:52:40.417Z,4708.00
2018-04-02T12:53:40.396Z,4768.00
2018-04-02T12:54:40.279Z,4808.00
2018-04-02T12:55:40.214Z,4856.00
2018-04-02T12:56:40.162Z,4856.00
2018-04-02T12:57:40.080Z,4776.00
2018-04-02T12:58:40.013Z,4644.00
2018-04-02T12:59:39.958Z,4528.00
2018-04-02T13:00:39.892Z,4548.00
2018-04-02T13:01:39.829Z,4648.00
2018-04-02T13:02:39.760Z,4724.00
2018-04-02T13:03:39.675Z,4736.00
2018-04-02T13:04:39.662Z,4708.00
2018-04-02T13:05:39.615Z,4584.00
2018-04-02T13:06:39.493Z,4360.00
2018-04-02T13:07:39.419Z,4044.00
2018-04-02T13:08:39.367Z,3732.00
2018-04-02T13:09:39.277Z,3416.00
2018-04-02T13:10:39.276Z,3128.00
2018-04-02T13:11:39.141Z,2896.00
2018-04-02T13:12:39.075Z,2756.00
2018-04-02T13:13:39.021Z,2668.00
2018-04-02T13:14:38.939Z,2604.00
2018-04-02T13:15:38.884Z,2540.00
2018-04-02T13:16:38.837Z,2492.00
2018-04-02T13:17:38.786Z,2468.00
2018-04-02T13:18:38.721Z,2424.00
2018-04-02T13:19:38.624Z,2424.00
2018-04-02T13:20:38.530Z,2468.00
2018-04-02T13:21:38.488Z,2516.00
2018-04-02T13:22:38.422Z,2548.00
2018-04-02T13:23:38.346Z,2572.00
2018-04-02T13:24:38.270Z,2584.00
2018-04-02T13:25:38.199Z,2660.00
2018-04-02T13:26:38.172Z,2692.00
2018-04-02T13:27:38.063Z,2720.00
2018-04-02T13:28:37.997Z,3016.00
2018-04-02T13:29:37.957Z,3620.00
2018-04-02T13:30:37.872Z,4176.00
2018-04-02T13:31:37.846Z,4492.00
2018-04-02T13:32:37.802Z,4608.00
2018-04-02T13:33:37.661Z,4664.00
2018-04-02T13:34:37.591Z,4696.00
2018-04-02T13:35:37.561Z,4636.00
2018-04-02T13:36:37.474Z,4552.00
2018-04-02T13:37:37.404Z,4536.00
2018-04-02T13:38:37.336Z,4696.00
2018-04-02T13:39:37.257Z,4856.00
2018-04-02T13:40:37.193Z,5124.00
2018-04-02T13:41:37.135Z,5360.00
2018-04-02T13:42:37.074Z,5536.00
2018-04-02T13:43:37.017Z,5636.00
2018-04-02T13:44:36.918Z,5680.00
2018-04-02T13:45:36.852Z,5768.00
2018-04-02T13:46:36.804Z,5816.00
2018-04-02T13:47:36.732Z,5892.00
2018-04-02T13:48:36.650Z,5952.00
2018-04-02T13:49:36.597Z,5888.00
2018-04-02T13:50:36.516Z,5592.00
2018-04-02T13:51:36.446Z,5540.00
2018-04-02T13:52:36.392Z,5204.00
2018-04-02T13:53:36.336Z,4572.00
2018-04-02T13:54:36.246Z,4380.00
2018-04-02T13:55:36.199Z,4148.00
2018-04-02T13:56:36.146Z,4144.00
2018-04-02T13:57:36.065Z,4252.00
2018-04-02T13:58:35.996Z,4392.00
2018-04-02T13:59:35.920Z,4780.00
2018-04-02T14:00:35.852Z,4820.00
2018-04-02T14:01:35.785Z,5132.00
2018-04-02T14:02:35.731Z,5116.00
2018-04-02T14:03:35.661Z,4652.00